sensor_id;sensor_type;location;lat;lon;timestamp;P1;durP1;ratioP1;P2;durP2;ratioP2
9224;SDS011;4647;48.072;11.616;2023-11-21T00:01:18;8.07;;;2.70;;
9224;SDS011;4647;48.072;11.616;2023-11-21T00:03:47;7.20;;;2.53;;
9224;SDS011;4647;48.072;11.616;2023-11-21T00:06:15;6.10;;;2.77;;
9224;SDS011;4647;48.072;11.616;2023-11-21T00:08:44;9.10;;;2.60;;
9224;SDS011;4647;48.072;11.616;2023-11-21T00:11:12;5.50;;;2.30;;
9224;SDS011;4647;48.072;11.616;2023-11-21T00:13:41;8.70;;;2.87;;
9224;SDS011;4647;48.072;11.616;2023-11-21T00:16:13;7.57;;;2.57;;
9224;SDS011;4647;48.072;11.616;2023-11-21T00:18:41;7.90;;;2.63;;
9224;SDS011;4647;48.072;11.616;2023-11-21T00:21:11;7.00;;;2.50;;
9224;SDS011;4647;48.072;11.616;2023-11-21T00:23:40;6.63;;;2.00;;
9224;SDS011;4647;48.072;11.616;2023-11-21T00:26:08;9.10;;;2.60;;
9224;SDS011;4647;48.072;11.616;2023-11-21T00:28:37;10.33;;;2.63;;
9224;SDS011;4647;48.072;11.616;2023-11-21T00:31:05;7.70;;;2.47;;
9224;SDS011;4647;48.072;11.616;2023-11-21T00:33:36;7.67;;;2.20;;
9224;SDS011;4647;48.072;11.616;2023-11-21T00:36:06;6.27;;;2.60;;
9224;SDS011;4647;48.072;11.616;2023-11-21T00:38:37;7.20;;;2.40;;
9224;SDS011;4647;48.072;11.616;2023-11-21T00:41:06;5.67;;;2.40;;
9224;SDS011;4647;48.072;11.616;2023-11-21T00:43:34;9.10;;;2.63;;
9224;SDS011;4647;48.072;11.616;2023-11-21T00:46:03;3.87;;;1.97;;
9224;SDS011;4647;48.072;11.616;2023-11-21T00:48:32;6.30;;;2.30;;
9224;SDS011;4647;48.072;11.616;2023-11-21T00:51:04;4.80;;;2.17;;
9224;SDS011;4647;48.072;11.616;2023-11-21T00:53:33;6.63;;;2.30;;
9224;SDS011;4647;48.072;11.616;2023-11-21T00:56:01;6.97;;;2.00;;
9224;SDS011;4647;48.072;11.616;2023-11-21T00:58:30;7.13;;;2.10;;
9224;SDS011;4647;48.072;11.616;2023-11-21T01:01:00;7.47;;;3.20;;
9224;SDS011;4647;48.072;11.616;2023-11-21T01:03:29;10.03;;;2.30;;
9224;SDS011;4647;48.072;11.616;2023-11-21T01:05:57;7.23;;;2.40;;
9224;SDS011;4647;48.072;11.616;2023-11-21T01:08:29;8.37;;;2.30;;
9224;SDS011;4647;48.072;11.616;2023-11-21T01:11:00;5.73;;;2.07;;
9224;SDS011;4647;48.072;11.616;2023-11-21T01:13:28;8.77;;;2.60;;
9224;SDS011;4647;48.072;11.616;2023-11-21T01:15:57;8.50;;;2.60;;
9224;SDS011;4647;48.072;11.616;2023-11-21T01:18:25;8.67;;;2.53;;
9224;SDS011;4647;48.072;11.616;2023-11-21T01:20:54;10.43;;;2.57;;
9224;SDS011;4647;48.072;11.616;2023-11-21T01:23:23;12.90;;;2.73;;
9224;SDS011;4647;48.072;11.616;2023-11-21T01:25:55;8.63;;;2.70;;
9224;SDS011;4647;48.072;11.616;2023-11-21T01:28:24;6.70;;;2.27;;
9224;SDS011;4647;48.072;11.616;2023-11-21T01:30:55;6.43;;;2.37;;
9224;SDS011;4647;48.072;11.616;2023-11-21T01:33:24;7.80;;;2.30;;
9224;SDS011;4647;48.072;11.616;2023-11-21T01:35:54;7.20;;;2.57;;
9224;SDS011;4647;48.072;11.616;2023-11-21T01:38:25;7.93;;;2.60;;
9224;SDS011;4647;48.072;11.616;2023-11-21T01:40:51;7.03;;;2.80;;
9224;SDS011;4647;48.072;11.616;2023-11-21T01:43:25;9.10;;;2.53;;
9224;SDS011;4647;48.072;11.616;2023-11-21T01:45:55;9.87;;;2.83;;
9224;SDS011;4647;48.072;11.616;2023-11-21T01:48:24;9.93;;;2.60;;
9224;SDS011;4647;48.072;11.616;2023-11-21T01:50:59;6.13;;;2.70;;
9224;SDS011;4647;48.072;11.616;2023-11-21T01:53:29;9.37;;;2.63;;
9224;SDS011;4647;48.072;11.616;2023-11-21T01:56:01;8.07;;;2.70;;
9224;SDS011;4647;48.072;11.616;2023-11-21T01:58:30;8.30;;;2.80;;
9224;SDS011;4647;48.072;11.616;2023-11-21T02:01:01;7.53;;;2.60;;
9224;SDS011;4647;48.072;11.616;2023-11-21T02:03:30;5.20;;;2.10;;
9224;SDS011;4647;48.072;11.616;2023-11-21T02:05:59;10.83;;;2.93;;
9224;SDS011;4647;48.072;11.616;2023-11-21T02:08:29;7.67;;;2.73;;
9224;SDS011;4647;48.072;11.616;2023-11-21T02:11:00;9.37;;;2.60;;
9224;SDS011;4647;48.072;11.616;2023-11-21T02:13:31;6.23;;;2.27;;
9224;SDS011;4647;48.072;11.616;2023-11-21T02:16:01;6.60;;;2.63;;
9224;SDS011;4647;48.072;11.616;2023-11-21T02:18:34;9.40;;;2.83;;
9224;SDS011;4647;48.072;11.616;2023-11-21T02:21:04;6.93;;;2.50;;
9224;SDS011;4647;48.072;11.616;2023-11-21T02:23:38;7.53;;;2.67;;
9224;SDS011;4647;48.072;11.616;2023-11-21T02:26:09;6.10;;;2.23;;
9224;SDS011;4647;48.072;11.616;2023-11-21T02:28:39;6.50;;;2.40;;
9224;SDS011;4647;48.072;11.616;2023-11-21T02:31:09;7.20;;;2.53;;
9224;SDS011;4647;48.072;11.616;2023-11-21T02:33:46;7.97;;;2.10;;
9224;SDS011;4647;48.072;11.616;2023-11-21T02:36:15;7.40;;;2.27;;
9224;SDS011;4647;48.072;11.616;2023-11-21T02:38:49;7.63;;;2.80;;
9224;SDS011;4647;48.072;11.616;2023-11-21T02:41:18;7.20;;;2.53;;
9224;SDS011;4647;48.072;11.616;2023-11-21T02:43:47;7.37;;;2.33;;
9224;SDS011;4647;48.072;11.616;2023-11-21T02:46:15;7.60;;;2.10;;
9224;SDS011;4647;48.072;11.616;2023-11-21T02:48:44;6.07;;;2.30;;
9224;SDS011;4647;48.072;11.616;2023-11-21T02:51:13;5.33;;;1.93;;
9224;SDS011;4647;48.072;11.616;2023-11-21T02:53:41;8.43;;;2.57;;
9224;SDS011;4647;48.072;11.616;2023-11-21T02:56:14;7.97;;;2.20;;
9224;SDS011;4647;48.072;11.616;2023-11-21T02:58:43;8.57;;;2.30;;
9224;SDS011;4647;48.072;11.616;2023-11-21T03:01:16;8.73;;;2.47;;
9224;SDS011;4647;48.072;11.616;2023-11-21T03:03:46;9.10;;;2.40;;
9224;SDS011;4647;48.072;11.616;2023-11-21T03:06:16;6.73;;;2.50;;
9224;SDS011;4647;48.072;11.616;2023-11-21T03:08:46;7.23;;;2.43;;
9224;SDS011;4647;48.072;11.616;2023-11-21T03:11:18;8.30;;;2.50;;
9224;SDS011;4647;48.072;11.616;2023-11-21T03:13:47;6.43;;;2.03;;
9224;SDS011;4647;48.072;11.616;2023-11-21T03:16:18;8.50;;;2.40;;
9224;SDS011;4647;48.072;11.616;2023-11-21T03:18:46;8.87;;;2.40;;
9224;SDS011;4647;48.072;11.616;2023-11-21T03:21:15;4.87;;;2.13;;
9224;SDS011;4647;48.072;11.616;2023-11-21T03:23:44;7.17;;;2.33;;
9224;SDS011;4647;48.072;11.616;2023-11-21T03:26:20;6.03;;;2.10;;
9224;SDS011;4647;48.072;11.616;2023-11-21T03:28:48;5.87;;;2.17;;
9224;SDS011;4647;48.072;11.616;2023-11-21T03:31:18;6.07;;;2.03;;
9224;SDS011;4647;48.072;11.616;2023-11-21T03:33:49;6.63;;;2.17;;
9224;SDS011;4647;48.072;11.616;2023-11-21T03:36:18;6.13;;;2.10;;
9224;SDS011;4647;48.072;11.616;2023-11-21T03:38:47;5.53;;;2.20;;
9224;SDS011;4647;48.072;11.616;2023-11-21T03:41:19;4.00;;;1.77;;
9224;SDS011;4647;48.072;11.616;2023-11-21T03:43:48;6.70;;;2.50;;
9224;SDS011;4647;48.072;11.616;2023-11-21T03:46:16;7.20;;;2.20;;
9224;SDS011;4647;48.072;11.616;2023-11-21T03:48:45;6.73;;;1.80;;
9224;SDS011;4647;48.072;11.616;2023-11-21T03:51:13;7.00;;;2.10;;
9224;SDS011;4647;48.072;11.616;2023-11-21T03:53:42;5.87;;;2.20;;
9224;SDS011;4647;48.072;11.616;2023-11-21T03:56:11;5.50;;;1.80;;
9224;SDS011;4647;48.072;11.616;2023-11-21T03:58:42;5.40;;;1.70;;
9224;SDS011;4647;48.072;11.616;2023-11-21T04:01:10;6.93;;;1.87;;
9224;SDS011;4647;48.072;11.616;2023-11-21T04:03:39;6.67;;;1.97;;
9224;SDS011;4647;48.072;11.616;2023-11-21T04:06:08;4.07;;;1.80;;
9224;SDS011;4647;48.072;11.616;2023-11-21T04:08:36;4.63;;;1.90;;
9224;SDS011;4647;48.072;11.616;2023-11-21T04:11:05;5.00;;;2.00;;
9224;SDS011;4647;48.072;11.616;2023-11-21T04:13:33;4.83;;;1.77;;
9224;SDS011;4647;48.072;11.616;2023-11-21T04:16:05;5.30;;;1.80;;
9224;SDS011;4647;48.072;11.616;2023-11-21T04:18:35;4.80;;;1.93;;
9224;SDS011;4647;48.072;11.616;2023-11-21T04:21:07;6.10;;;1.70;;
9224;SDS011;4647;48.072;11.616;2023-11-21T04:23:38;6.03;;;1.60;;
9224;SDS011;4647;48.072;11.616;2023-11-21T04:26:06;5.93;;;1.93;;
9224;SDS011;4647;48.072;11.616;2023-11-21T04:28:35;4.63;;;1.60;;
9224;SDS011;4647;48.072;11.616;2023-11-21T04:31:06;3.83;;;1.80;;
9224;SDS011;4647;48.072;11.616;2023-11-21T04:33:36;3.97;;;1.60;;
9224;SDS011;4647;48.072;11.616;2023-11-21T04:36:05;3.30;;;1.60;;
9224;SDS011;4647;48.072;11.616;2023-11-21T04:38:34;8.93;;;2.00;;
9224;SDS011;4647;48.072;11.616;2023-11-21T04:41:02;4.37;;;1.53;;
9224;SDS011;4647;48.072;11.616;2023-11-21T04:43:31;7.27;;;1.90;;
9224;SDS011;4647;48.072;11.616;2023-11-21T04:45:59;4.73;;;1.70;;
9224;SDS011;4647;48.072;11.616;2023-11-21T04:48:35;4.67;;;1.40;;
9224;SDS011;4647;48.072;11.616;2023-11-21T04:51:04;3.30;;;1.70;;
9224;SDS011;4647;48.072;11.616;2023-11-21T04:53:33;4.57;;;1.80;;
9224;SDS011;4647;48.072;11.616;2023-11-21T04:56:01;5.10;;;1.70;;
9224;SDS011;4647;48.072;11.616;2023-11-21T04:58:30;4.27;;;1.70;;
9224;SDS011;4647;48.072;11.616;2023-11-21T05:01:01;5.83;;;1.80;;
9224;SDS011;4647;48.072;11.616;2023-11-21T05:03:29;6.43;;;2.00;;
9224;SDS011;4647;48.072;11.616;2023-11-21T05:06:00;7.43;;;1.77;;
9224;SDS011;4647;48.072;11.616;2023-11-21T05:08:30;4.37;;;1.83;;
9224;SDS011;4647;48.072;11.616;2023-11-21T05:10:58;3.30;;;1.60;;
9224;SDS011;4647;48.072;11.616;2023-11-21T05:13:27;6.13;;;1.93;;
9224;SDS011;4647;48.072;11.616;2023-11-21T05:15:56;4.80;;;1.50;;
9224;SDS011;4647;48.072;11.616;2023-11-21T05:18:24;4.97;;;1.70;;
9224;SDS011;4647;48.072;11.616;2023-11-21T05:20:55;5.80;;;1.60;;
9224;SDS011;4647;48.072;11.616;2023-11-21T05:23:29;7.63;;;1.80;;
9224;SDS011;4647;48.072;11.616;2023-11-21T05:26:01;5.63;;;1.83;;
9224;SDS011;4647;48.072;11.616;2023-11-21T05:28:31;4.90;;;1.83;;
9224;SDS011;4647;48.072;11.616;2023-11-21T05:31:00;5.50;;;2.20;;
9224;SDS011;4647;48.072;11.616;2023-11-21T05:33:29;5.37;;;2.07;;
9224;SDS011;4647;48.072;11.616;2023-11-21T05:35:58;3.97;;;1.57;;
9224;SDS011;4647;48.072;11.616;2023-11-21T05:38:33;4.77;;;2.20;;
9224;SDS011;4647;48.072;11.616;2023-11-21T05:41:04;6.37;;;2.60;;
9224;SDS011;4647;48.072;11.616;2023-11-21T05:43:33;6.80;;;2.50;;
9224;SDS011;4647;48.072;11.616;2023-11-21T05:46:06;13.53;;;4.23;;
9224;SDS011;4647;48.072;11.616;2023-11-21T05:48:35;6.27;;;2.63;;
9224;SDS011;4647;48.072;11.616;2023-11-21T05:51:11;8.73;;;3.63;;
9224;SDS011;4647;48.072;11.616;2023-11-21T05:53:44;8.03;;;3.20;;
9224;SDS011;4647;48.072;11.616;2023-11-21T05:56:13;14.83;;;4.93;;
9224;SDS011;4647;48.072;11.616;2023-11-21T05:58:43;5.00;;;2.80;;
9224;SDS011;4647;48.072;11.616;2023-11-21T06:01:12;4.33;;;2.30;;
9224;SDS011;4647;48.072;11.616;2023-11-21T06:03:40;5.00;;;2.30;;
9224;SDS011;4647;48.072;11.616;2023-11-21T06:06:09;4.93;;;2.03;;
9224;SDS011;4647;48.072;11.616;2023-11-21T06:08:39;5.30;;;2.17;;
9224;SDS011;4647;48.072;11.616;2023-11-21T06:11:10;4.93;;;2.30;;
9224;SDS011;4647;48.072;11.616;2023-11-21T06:13:39;4.00;;;2.20;;
9224;SDS011;4647;48.072;11.616;2023-11-21T06:16:08;5.00;;;2.50;;
9224;SDS011;4647;48.072;11.616;2023-11-21T06:18:46;6.03;;;2.30;;
9224;SDS011;4647;48.072;11.616;2023-11-21T06:21:14;6.93;;;2.10;;
9224;SDS011;4647;48.072;11.616;2023-11-21T06:23:44;3.93;;;1.90;;
9224;SDS011;4647;48.072;11.616;2023-11-21T06:26:16;5.27;;;1.90;;
9224;SDS011;4647;48.072;11.616;2023-11-21T06:28:46;7.17;;;2.17;;
9224;SDS011;4647;48.072;11.616;2023-11-21T06:31:16;7.17;;;2.50;;
9224;SDS011;4647;48.072;11.616;2023-11-21T06:33:44;4.17;;;1.80;;
9224;SDS011;4647;48.072;11.616;2023-11-21T06:36:13;8.70;;;2.40;;
9224;SDS011;4647;48.072;11.616;2023-11-21T06:38:41;7.77;;;2.67;;
9224;SDS011;4647;48.072;11.616;2023-11-21T06:41:11;5.97;;;2.80;;
9224;SDS011;4647;48.072;11.616;2023-11-21T06:43:43;4.37;;;2.43;;
9224;SDS011;4647;48.072;11.616;2023-11-21T06:46:12;5.43;;;1.90;;
9224;SDS011;4647;48.072;11.616;2023-11-21T06:48:42;5.57;;;2.00;;
9224;SDS011;4647;48.072;11.616;2023-11-21T06:51:14;4.60;;;2.20;;
9224;SDS011;4647;48.072;11.616;2023-11-21T06:53:43;3.07;;;2.00;;
9224;SDS011;4647;48.072;11.616;2023-11-21T06:56:17;3.40;;;1.70;;
9224;SDS011;4647;48.072;11.616;2023-11-21T06:58:51;5.13;;;1.70;;
9224;SDS011;4647;48.072;11.616;2023-11-21T07:01:25;3.67;;;1.50;;
9224;SDS011;4647;48.072;11.616;2023-11-21T07:04:07;3.20;;;1.50;;
9224;SDS011;4647;48.072;11.616;2023-11-21T07:06:46;5.23;;;1.80;;
9224;SDS011;4647;48.072;11.616;2023-11-21T07:09:15;5.03;;;1.77;;
9224;SDS011;4647;48.072;11.616;2023-11-21T07:11:47;2.93;;;1.60;;
9224;SDS011;4647;48.072;11.616;2023-11-21T07:14:19;2.93;;;1.73;;
9224;SDS011;4647;48.072;11.616;2023-11-21T07:16:49;5.73;;;2.00;;
9224;SDS011;4647;48.072;11.616;2023-11-21T07:19:21;5.13;;;2.10;;
9224;SDS011;4647;48.072;11.616;2023-11-21T07:21:50;3.70;;;1.97;;
9224;SDS011;4647;48.072;11.616;2023-11-21T07:24:23;4.60;;;1.80;;
9224;SDS011;4647;48.072;11.616;2023-11-21T07:26:56;5.13;;;2.10;;
9224;SDS011;4647;48.072;11.616;2023-11-21T07:29:36;4.80;;;1.70;;
9224;SDS011;4647;48.072;11.616;2023-11-21T07:32:12;4.57;;;1.50;;
9224;SDS011;4647;48.072;11.616;2023-11-21T07:34:48;3.30;;;1.30;;
9224;SDS011;4647;48.072;11.616;2023-11-21T07:37:17;2.00;;;1.40;;
9224;SDS011;4647;48.072;11.616;2023-11-21T07:39:48;2.43;;;1.63;;
9224;SDS011;4647;48.072;11.616;2023-11-21T07:42:34;3.43;;;1.67;;
9224;SDS011;4647;48.072;11.616;2023-11-21T07:45:06;3.73;;;1.77;;
9224;SDS011;4647;48.072;11.616;2023-11-21T07:47:36;2.73;;;1.30;;
9224;SDS011;4647;48.072;11.616;2023-11-21T07:50:06;2.80;;;1.60;;
9224;SDS011;4647;48.072;11.616;2023-11-21T07:52:38;5.57;;;1.33;;
9224;SDS011;4647;48.072;11.616;2023-11-21T07:55:09;3.87;;;1.30;;
9224;SDS011;4647;48.072;11.616;2023-11-21T07:57:40;2.47;;;1.20;;
9224;SDS011;4647;48.072;11.616;2023-11-21T08:00:13;2.70;;;1.20;;
9224;SDS011;4647;48.072;11.616;2023-11-21T08:02:49;2.90;;;1.27;;
9224;SDS011;4647;48.072;11.616;2023-11-21T08:05:20;3.63;;;1.53;;
9224;SDS011;4647;48.072;11.616;2023-11-21T08:07:54;3.40;;;1.30;;
9224;SDS011;4647;48.072;11.616;2023-11-21T08:10:23;2.60;;;1.40;;
9224;SDS011;4647;48.072;11.616;2023-11-21T08:12:52;2.60;;;1.20;;
9224;SDS011;4647;48.072;11.616;2023-11-21T08:15:23;3.27;;;1.30;;
9224;SDS011;4647;48.072;11.616;2023-11-21T08:17:52;3.03;;;1.30;;
9224;SDS011;4647;48.072;11.616;2023-11-21T08:20:25;1.70;;;1.10;;
9224;SDS011;4647;48.072;11.616;2023-11-21T08:25:37;3.20;;;1.50;;
9224;SDS011;4647;48.072;11.616;2023-11-21T08:28:07;2.83;;;1.30;;
9224;SDS011;4647;48.072;11.616;2023-11-21T08:30:38;2.93;;;1.30;;
9224;SDS011;4647;48.072;11.616;2023-11-21T08:33:07;1.67;;;1.10;;
9224;SDS011;4647;48.072;11.616;2023-11-21T08:35:38;1.70;;;1.00;;
9224;SDS011;4647;48.072;11.616;2023-11-21T08:38:07;1.90;;;1.00;;
9224;SDS011;4647;48.072;11.616;2023-11-21T08:40:36;3.43;;;1.30;;
9224;SDS011;4647;48.072;11.616;2023-11-21T08:43:05;2.43;;;1.23;;
9224;SDS011;4647;48.072;11.616;2023-11-21T08:45:33;3.00;;;1.57;;
9224;SDS011;4647;48.072;11.616;2023-11-21T08:48:09;1.97;;;1.20;;
9224;SDS011;4647;48.072;11.616;2023-11-21T08:50:40;2.07;;;0.97;;
9224;SDS011;4647;48.072;11.616;2023-11-21T08:53:14;2.27;;;1.23;;
9224;SDS011;4647;48.072;11.616;2023-11-21T08:55:47;4.50;;;1.30;;
9224;SDS011;4647;48.072;11.616;2023-11-21T08:58:17;2.10;;;1.17;;
9224;SDS011;4647;48.072;11.616;2023-11-21T09:00:47;3.10;;;1.40;;
9224;SDS011;4647;48.072;11.616;2023-11-21T09:03:24;3.93;;;1.30;;
9224;SDS011;4647;48.072;11.616;2023-11-21T09:05:55;1.60;;;0.97;;
9224;SDS011;4647;48.072;11.616;2023-11-21T09:08:28;3.20;;;1.20;;
9224;SDS011;4647;48.072;11.616;2023-11-21T09:10:59;2.03;;;1.03;;
9224;SDS011;4647;48.072;11.616;2023-11-21T09:13:30;2.37;;;1.40;;
9224;SDS011;4647;48.072;11.616;2023-11-21T09:15:59;2.43;;;1.30;;
9224;SDS011;4647;48.072;11.616;2023-11-21T09:18:33;3.43;;;1.30;;
9224;SDS011;4647;48.072;11.616;2023-11-21T09:21:04;2.30;;;1.20;;
9224;SDS011;4647;48.072;11.616;2023-11-21T09:23:37;2.37;;;1.20;;
9224;SDS011;4647;48.072;11.616;2023-11-21T09:26:08;2.50;;;1.13;;
9224;SDS011;4647;48.072;11.616;2023-11-21T09:28:37;2.80;;;1.27;;
9224;SDS011;4647;48.072;11.616;2023-11-21T09:31:11;2.83;;;1.43;;
9224;SDS011;4647;48.072;11.616;2023-11-21T09:33:51;2.67;;;1.40;;
9224;SDS011;4647;48.072;11.616;2023-11-21T09:36:27;2.87;;;1.40;;
9224;SDS011;4647;48.072;11.616;2023-11-21T09:38:56;4.30;;;1.67;;
9224;SDS011;4647;48.072;11.616;2023-11-21T09:41:37;2.40;;;1.30;;
9224;SDS011;4647;48.072;11.616;2023-11-21T09:44:12;3.63;;;1.40;;
9224;SDS011;4647;48.072;11.616;2023-11-21T09:46:48;1.77;;;1.20;;
9224;SDS011;4647;48.072;11.616;2023-11-21T09:49:23;2.53;;;1.37;;
9224;SDS011;4647;48.072;11.616;2023-11-21T09:52:00;1.60;;;1.10;;
9224;SDS011;4647;48.072;11.616;2023-11-21T09:54:33;3.33;;;1.40;;
9224;SDS011;4647;48.072;11.616;2023-11-21T09:57:07;2.20;;;1.20;;
9224;SDS011;4647;48.072;11.616;2023-11-21T09:59:38;3.37;;;1.37;;
9224;SDS011;4647;48.072;11.616;2023-11-21T10:02:10;2.67;;;1.37;;
9224;SDS011;4647;48.072;11.616;2023-11-21T10:04:46;3.10;;;1.47;;
9224;SDS011;4647;48.072;11.616;2023-11-21T10:07:20;3.60;;;1.37;;
9224;SDS011;4647;48.072;11.616;2023-11-21T10:09:50;3.63;;;1.30;;
9224;SDS011;4647;48.072;11.616;2023-11-21T10:12:34;1.63;;;1.07;;
9224;SDS011;4647;48.072;11.616;2023-11-21T10:15:08;3.50;;;1.50;;
9224;SDS011;4647;48.072;11.616;2023-11-21T10:17:44;3.33;;;1.60;;
9224;SDS011;4647;48.072;11.616;2023-11-21T10:20:21;2.47;;;1.33;;
9224;SDS011;4647;48.072;11.616;2023-11-21T10:22:57;3.43;;;1.30;;
9224;SDS011;4647;48.072;11.616;2023-11-21T10:25:30;2.83;;;1.30;;
9224;SDS011;4647;48.072;11.616;2023-11-21T10:28:01;8.83;;;1.83;;
9224;SDS011;4647;48.072;11.616;2023-11-21T10:30:32;4.13;;;1.90;;
9224;SDS011;4647;48.072;11.616;2023-11-21T10:33:03;2.53;;;1.20;;
9224;SDS011;4647;48.072;11.616;2023-11-21T10:35:46;2.10;;;1.50;;
9224;SDS011;4647;48.072;11.616;2023-11-21T10:38:16;2.17;;;1.30;;
9224;SDS011;4647;48.072;11.616;2023-11-21T10:40:46;3.27;;;1.70;;
9224;SDS011;4647;48.072;11.616;2023-11-21T10:43:16;3.53;;;1.40;;
9224;SDS011;4647;48.072;11.616;2023-11-21T10:45:47;3.10;;;1.47;;
9224;SDS011;4647;48.072;11.616;2023-11-21T10:48:28;3.40;;;1.57;;
9224;SDS011;4647;48.072;11.616;2023-11-21T10:51:09;2.90;;;1.43;;
9224;SDS011;4647;48.072;11.616;2023-11-21T10:53:49;2.33;;;1.50;;
9224;SDS011;4647;48.072;11.616;2023-11-21T10:56:19;5.23;;;1.50;;
9224;SDS011;4647;48.072;11.616;2023-11-21T11:01:46;2.90;;;1.50;;
9224;SDS011;4647;48.072;11.616;2023-11-21T11:04:18;2.67;;;1.50;;
9224;SDS011;4647;48.072;11.616;2023-11-21T11:07:02;3.80;;;1.73;;
9224;SDS011;4647;48.072;11.616;2023-11-21T11:09:34;2.80;;;1.30;;
9224;SDS011;4647;48.072;11.616;2023-11-21T11:12:06;7.77;;;1.97;;
9224;SDS011;4647;48.072;11.616;2023-11-21T11:14:38;3.50;;;1.80;;
9224;SDS011;4647;48.072;11.616;2023-11-21T11:17:18;2.47;;;1.50;;
9224;SDS011;4647;48.072;11.616;2023-11-21T11:20:00;3.37;;;1.50;;
9224;SDS011;4647;48.072;11.616;2023-11-21T11:22:40;5.47;;;1.80;;
9224;SDS011;4647;48.072;11.616;2023-11-21T11:25:40;2.50;;;1.60;;
9224;SDS011;4647;48.072;11.616;2023-11-21T11:28:27;2.20;;;1.20;;
9224;SDS011;4647;48.072;11.616;2023-11-21T11:31:09;6.50;;;4.17;;
9224;SDS011;4647;48.072;11.616;2023-11-21T11:33:52;4.80;;;1.50;;
9224;SDS011;4647;48.072;11.616;2023-11-21T11:36:37;3.83;;;2.40;;
9224;SDS011;4647;48.072;11.616;2023-11-21T11:42:06;3.70;;;1.43;;
9224;SDS011;4647;48.072;11.616;2023-11-21T11:44:52;1.53;;;1.13;;
9224;SDS011;4647;48.072;11.616;2023-11-21T11:47:23;2.43;;;1.10;;
9224;SDS011;4647;48.072;11.616;2023-11-21T11:50:13;2.90;;;1.40;;
9224;SDS011;4647;48.072;11.616;2023-11-21T11:53:12;1.57;;;1.13;;
9224;SDS011;4647;48.072;11.616;2023-11-21T11:56:00;3.17;;;1.57;;
9224;SDS011;4647;48.072;11.616;2023-11-21T11:59:01;1.53;;;1.40;;
9224;SDS011;4647;48.072;11.616;2023-11-21T12:01:38;5.00;;;1.43;;
9224;SDS011;4647;48.072;11.616;2023-11-21T12:04:23;2.63;;;1.40;;
9224;SDS011;4647;48.072;11.616;2023-11-21T12:07:00;2.80;;;1.53;;
9224;SDS011;4647;48.072;11.616;2023-11-21T12:09:36;4.10;;;1.47;;
9224;SDS011;4647;48.072;11.616;2023-11-21T12:12:08;2.83;;;1.30;;
9224;SDS011;4647;48.072;11.616;2023-11-21T12:14:44;2.23;;;1.20;;
9224;SDS011;4647;48.072;11.616;2023-11-21T12:17:13;4.27;;;1.40;;
9224;SDS011;4647;48.072;11.616;2023-11-21T12:20:07;3.10;;;1.50;;
9224;SDS011;4647;48.072;11.616;2023-11-21T12:22:44;3.67;;;1.30;;
9224;SDS011;4647;48.072;11.616;2023-11-21T12:25:35;1.80;;;1.00;;
9224;SDS011;4647;48.072;11.616;2023-11-21T12:28:08;2.07;;;1.20;;
9224;SDS011;4647;48.072;11.616;2023-11-21T12:30:39;2.60;;;1.10;;
9224;SDS011;4647;48.072;11.616;2023-11-21T12:33:10;1.27;;;1.10;;
9224;SDS011;4647;48.072;11.616;2023-11-21T12:35:42;1.90;;;1.23;;
9224;SDS011;4647;48.072;11.616;2023-11-21T12:38:15;1.57;;;1.30;;
9224;SDS011;4647;48.072;11.616;2023-11-21T12:40:44;3.83;;;1.70;;
9224;SDS011;4647;48.072;11.616;2023-11-21T12:43:22;4.50;;;1.57;;
9224;SDS011;4647;48.072;11.616;2023-11-21T12:46:06;3.00;;;1.40;;
9224;SDS011;4647;48.072;11.616;2023-11-21T12:48:40;3.03;;;1.40;;
9224;SDS011;4647;48.072;11.616;2023-11-21T12:51:12;2.77;;;1.43;;
9224;SDS011;4647;48.072;11.616;2023-11-21T12:53:46;2.10;;;1.40;;
9224;SDS011;4647;48.072;11.616;2023-11-21T12:56:29;2.53;;;1.60;;
9224;SDS011;4647;48.072;11.616;2023-11-21T12:59:04;3.20;;;1.70;;
9224;SDS011;4647;48.072;11.616;2023-11-21T13:01:38;2.97;;;1.60;;
9224;SDS011;4647;48.072;11.616;2023-11-21T13:04:13;2.80;;;1.40;;
9224;SDS011;4647;48.072;11.616;2023-11-21T13:06:43;3.63;;;1.40;;
9224;SDS011;4647;48.072;11.616;2023-11-21T13:09:26;1.73;;;1.20;;
9224;SDS011;4647;48.072;11.616;2023-11-21T13:11:59;2.77;;;1.33;;
9224;SDS011;4647;48.072;11.616;2023-11-21T13:14:32;3.03;;;1.63;;
9224;SDS011;4647;48.072;11.616;2023-11-21T13:17:16;2.33;;;1.50;;
9224;SDS011;4647;48.072;11.616;2023-11-21T13:19:49;2.77;;;1.50;;
9224;SDS011;4647;48.072;11.616;2023-11-21T13:22:28;3.03;;;1.30;;
9224;SDS011;4647;48.072;11.616;2023-11-21T13:25:06;16.60;;;2.53;;
9224;SDS011;4647;48.072;11.616;2023-11-21T13:27:41;1.77;;;1.20;;
9224;SDS011;4647;48.072;11.616;2023-11-21T13:30:16;3.20;;;1.30;;
9224;SDS011;4647;48.072;11.616;2023-11-21T13:32:48;1.30;;;1.00;;
9224;SDS011;4647;48.072;11.616;2023-11-21T13:35:22;2.07;;;0.87;;
9224;SDS011;4647;48.072;11.616;2023-11-21T13:38:04;5.47;;;1.30;;
9224;SDS011;4647;48.072;11.616;2023-11-21T13:40:39;3.97;;;1.10;;
9224;SDS011;4647;48.072;11.616;2023-11-21T13:43:41;3.90;;;1.23;;
9224;SDS011;4647;48.072;11.616;2023-11-21T13:46:21;3.40;;;1.40;;
9224;SDS011;4647;48.072;11.616;2023-11-21T13:48:50;3.53;;;1.50;;
9224;SDS011;4647;48.072;11.616;2023-11-21T13:51:21;1.90;;;1.30;;
9224;SDS011;4647;48.072;11.616;2023-11-21T13:53:58;1.47;;;1.17;;
9224;SDS011;4647;48.072;11.616;2023-11-21T13:56:34;3.83;;;1.30;;
9224;SDS011;4647;48.072;11.616;2023-11-21T13:59:06;3.10;;;1.47;;
9224;SDS011;4647;48.072;11.616;2023-11-21T14:01:47;6.43;;;1.80;;
9224;SDS011;4647;48.072;11.616;2023-11-21T14:04:25;6.10;;;1.97;;
9224;SDS011;4647;48.072;11.616;2023-11-21T14:07:18;6.37;;;1.40;;
9224;SDS011;4647;48.072;11.616;2023-11-21T14:09:57;7.90;;;1.80;;
9224;SDS011;4647;48.072;11.616;2023-11-21T14:12:39;3.67;;;1.30;;
9224;SDS011;4647;48.072;11.616;2023-11-21T14:15:10;3.23;;;1.80;;
9224;SDS011;4647;48.072;11.616;2023-11-21T14:17:45;2.50;;;1.30;;
9224;SDS011;4647;48.072;11.616;2023-11-21T14:20:15;2.27;;;1.40;;
9224;SDS011;4647;48.072;11.616;2023-11-21T14:22:46;3.50;;;1.40;;
9224;SDS011;4647;48.072;11.616;2023-11-21T14:25:16;2.40;;;1.53;;
9224;SDS011;4647;48.072;11.616;2023-11-21T14:27:46;3.10;;;1.70;;
9224;SDS011;4647;48.072;11.616;2023-11-21T14:30:20;1.10;;;1.00;;
9224;SDS011;4647;48.072;11.616;2023-11-21T14:32:51;1.10;;;1.00;;
9224;SDS011;4647;48.072;11.616;2023-11-21T14:35:20;1.63;;;1.20;;
9224;SDS011;4647;48.072;11.616;2023-11-21T14:37:51;3.30;;;1.00;;
9224;SDS011;4647;48.072;11.616;2023-11-21T14:40:23;1.37;;;0.90;;
9224;SDS011;4647;48.072;11.616;2023-11-21T14:42:58;3.23;;;1.10;;
9224;SDS011;4647;48.072;11.616;2023-11-21T14:45:33;1.20;;;1.10;;
9224;SDS011;4647;48.072;11.616;2023-11-21T14:48:11;2.00;;;0.90;;
9224;SDS011;4647;48.072;11.616;2023-11-21T14:50:45;1.93;;;1.30;;
9224;SDS011;4647;48.072;11.616;2023-11-21T14:53:38;1.60;;;1.23;;
9224;SDS011;4647;48.072;11.616;2023-11-21T14:56:20;2.97;;;1.20;;
9224;SDS011;4647;48.072;11.616;2023-11-21T14:58:58;1.37;;;1.27;;
9224;SDS011;4647;48.072;11.616;2023-11-21T15:01:35;1.37;;;1.00;;
9224;SDS011;4647;48.072;11.616;2023-11-21T15:04:13;1.70;;;1.27;;
9224;SDS011;4647;48.072;11.616;2023-11-21T15:06:59;1.17;;;1.00;;
9224;SDS011;4647;48.072;11.616;2023-11-21T15:09:32;1.77;;;1.30;;
9224;SDS011;4647;48.072;11.616;2023-11-21T15:12:08;2.60;;;1.47;;
9224;SDS011;4647;48.072;11.616;2023-11-21T15:14:41;2.37;;;2.13;;
9224;SDS011;4647;48.072;11.616;2023-11-21T15:17:25;3.93;;;2.50;;
9224;SDS011;4647;48.072;11.616;2023-11-21T15:20:02;3.00;;;2.07;;
9224;SDS011;4647;48.072;11.616;2023-11-21T15:22:33;3.00;;;2.27;;
9224;SDS011;4647;48.072;11.616;2023-11-21T15:25:06;3.87;;;1.90;;
9224;SDS011;4647;48.072;11.616;2023-11-21T15:27:35;2.77;;;2.03;;
9224;SDS011;4647;48.072;11.616;2023-11-21T15:30:06;3.70;;;2.30;;
9224;SDS011;4647;48.072;11.616;2023-11-21T15:32:36;4.27;;;2.43;;
9224;SDS011;4647;48.072;11.616;2023-11-21T15:35:10;4.67;;;2.33;;
9224;SDS011;4647;48.072;11.616;2023-11-21T15:37:39;4.33;;;3.20;;
9224;SDS011;4647;48.072;11.616;2023-11-21T15:40:12;4.93;;;3.47;;
9224;SDS011;4647;48.072;11.616;2023-11-21T15:42:42;5.23;;;3.30;;